McHenry, IL

6:03 AM CDT on July 28, 2017 (GMT -0500)
Providence Farm | | Change Station
Active Advisory: Flood Warning

Elev 755 ft 42.35 °N, 88.21 °W | Updated 5 seconds ago

Clear
Clear
65.1 °F
Feels Like 65.1 °F
N
4.9
Wind Variable Wind from NE
Gusts 5.0 mph

Today
High -- | Low -- °F
--% Chance of Precip.
Yesterday
High -- | Low -- °F
Precip. -- in
Pressure 29.95 in
Visibility 10.0 miles
Clouds Clear
Dew Point 62 °F
Humidity 91%
Rainfall 0.00 in
Snow Depth Not available.
5:41 AM 8:16 PM
Waxing Crescent, 29% visible
METAR KUGN 281055Z 01008KT 10SM CLR 19/18 A2997 RMK AO2 SLP140 T01940178
Pressure 29.95 in
Visibility 10.0 miles
Clouds Clear
Dew Point 62 °F
Humidity 91%
Rainfall 0.00 in
Snow Depth Not available.
5:41 AM 8:16 PM
Waxing Crescent, 29% visible
METAR KUGN 281055Z 01008KT 10SM CLR 19/18 A2997 RMK AO2 SLP140 T01940178

Get Your Daily Forecast Email!

Thanks for signing up!

Be on the lookout for a verification email in your inbox.

You'll start receiving severe weather alerts in your inbox..

×

10-Day Weather Forecast

Almanac

Astronomy

Jul. 28, 2017 Rise Set
Actual Time
Civil Twilight
Nautical Twilight
Astronomical Twilight
Moon
Length of Visible Light
Length of Day
Tomorrow will be .
, % of the Moon is Illuminated

Today's Extremes

State Highs State Lows

Community

WunderPhotos

Category 6

Welcome to Category 6. This is the collective home for Weather Underground's featured writeups by Dr. Jeff Masters (right), Bob Henson (left), Chris Burt, and other regular contributors.

Nearby

Air Quality

  Air Quality AQ Index Pollutant
Not available.

Snow Depth

Station Depth Elevation

Earthquake Activity

City Distance Mag. Time & Date
Minimum magnitude displayed is 2.5.

Coastal Water Temperatures

Place Temperature

Stations

Nearby Weather Stations

Station Location Temp. Windchill Dew Point Humidity Wind Precip. Elev Updated Type
                   

Watches & Warnings

Flood Warning
Issued: 8:12 PM CDT Jul. 27, 2017 – National Weather Service

The Flood Warning continues for
the Fox River at Algonquin tailwater.
* Until further notice.
* At 730 PM Thursday the stage was 11.8 feet.
* Flood stage is 9.5 feet.
* Recent activity... flood forecasts for Algonquin were moved to this
location on July 5 2011. Gage zero datum is different from the old
gage location. Flood and action stages have changed.
* Moderate flooding is occurring.
* Forecast... the river will continue to fall to a stage of 11.3 feet
by Saturday morning.



Lat... Lon 4238 8830 4237 8817 4221 8814 4194 8827
      4195 8838 4224 8828